createdAt,value
2018-02-27T00:01:27.752Z,7.73
2018-02-27T00:03:55.919Z,8.30
2018-02-27T00:06:24.274Z,8.47
2018-02-27T00:08:51.806Z,8.47
2018-02-27T00:11:19.422Z,7.60
2018-02-27T00:13:46.989Z,8.67
2018-02-27T00:16:14.562Z,6.43
2018-02-27T00:18:42.952Z,6.53
2018-02-27T00:21:11.584Z,6.57
2018-02-27T00:23:39.313Z,8.53
2018-02-27T00:26:07.004Z,7.13
2018-02-27T00:28:34.576Z,7.00
2018-02-27T00:31:02.085Z,5.87
2018-02-27T00:33:29.641Z,5.60
2018-02-27T00:35:57.178Z,6.00
2018-02-27T00:38:24.810Z,5.03
2018-02-27T00:40:53.516Z,5.87
2018-02-27T00:43:22.164Z,7.50
2018-02-27T00:45:50.432Z,6.13
2018-02-27T00:48:18.683Z,6.80
2018-02-27T00:50:46.259Z,8.30
2018-02-27T00:53:15.044Z,6.10
2018-02-27T00:55:42.791Z,6.10
2018-02-27T00:58:10.743Z,4.83
2018-02-27T01:00:38.407Z,5.10
2018-02-27T01:03:06.492Z,5.50
2018-02-27T01:05:34.843Z,6.13
2018-02-27T01:08:02.367Z,5.80
2018-02-27T01:10:30.767Z,8.20
2018-02-27T01:12:58.342Z,6.80
2018-02-27T01:15:26.316Z,6.27
2018-02-27T01:17:53.985Z,6.00
2018-02-27T01:20:22.181Z,5.70
2018-02-27T01:22:50.503Z,5.30
2018-02-27T01:25:19.000Z,6.27
2018-02-27T01:27:46.855Z,6.07
2018-02-27T01:30:14.932Z,5.20
2018-02-27T01:32:42.683Z,5.83
2018-02-27T01:35:10.992Z,7.47
2018-02-27T01:37:39.515Z,6.93
2018-02-27T01:40:07.354Z,6.20
2018-02-27T01:42:34.983Z,5.87
2018-02-27T01:45:02.745Z,6.37
2018-02-27T01:47:30.618Z,9.27
2018-02-27T01:49:59.176Z,5.87
2018-02-27T01:52:28.581Z,5.83
2018-02-27T01:54:57.138Z,5.87
2018-02-27T01:57:25.375Z,6.70
2018-02-27T01:59:53.450Z,5.93
2018-02-27T02:02:21.433Z,7.20
2018-02-27T02:04:49.265Z,7.37
2018-02-27T02:07:16.938Z,6.10
2018-02-27T02:09:44.656Z,5.47
2018-02-27T02:12:12.428Z,6.40
2018-02-27T02:14:41.082Z,5.10
2018-02-27T02:17:10.909Z,8.73
2018-02-27T02:19:39.774Z,6.33
2018-02-27T02:22:07.800Z,6.50
2018-02-27T02:24:35.502Z,7.00
2018-02-27T02:27:03.373Z,5.07
2018-02-27T02:29:31.038Z,5.83
2018-02-27T02:31:59.557Z,5.37
2018-02-27T02:34:27.974Z,5.30
2018-02-27T02:36:56.916Z,5.30
2018-02-27T02:39:25.175Z,6.27
2018-02-27T02:41:53.018Z,7.50
2018-02-27T02:44:21.615Z,4.93
2018-02-27T02:46:49.436Z,5.70
2018-02-27T02:49:17.518Z,4.90
2018-02-27T02:51:45.382Z,5.83
2018-02-27T02:54:14.308Z,5.63
2018-02-27T02:56:42.483Z,4.87
2018-02-27T02:59:10.212Z,6.07
2018-02-27T03:01:38.313Z,5.60
2018-02-27T03:04:06.352Z,5.17
2018-02-27T03:06:34.425Z,5.03
2018-02-27T03:09:02.323Z,6.03
2018-02-27T03:11:30.208Z,7.70
2018-02-27T03:13:57.911Z,5.20
2018-02-27T03:16:26.422Z,5.33
2018-02-27T03:18:54.107Z,6.10
2018-02-27T03:21:22.159Z,5.30
2018-02-27T03:23:50.091Z,5.13
2018-02-27T03:26:18.038Z,5.40
2018-02-27T03:28:45.850Z,5.90
2018-02-27T03:31:14.761Z,5.30
2018-02-27T03:33:42.791Z,5.20
2018-02-27T03:36:10.569Z,5.07
2018-02-27T03:38:38.361Z,4.37
2018-02-27T03:41:06.417Z,5.50
2018-02-27T03:43:34.091Z,5.43
2018-02-27T03:46:02.195Z,5.10
2018-02-27T03:48:30.002Z,5.30
2018-02-27T03:50:58.446Z,4.87
2018-02-27T03:53:26.542Z,5.20
2018-02-27T03:55:54.751Z,4.83
2018-02-27T03:58:23.606Z,5.50
2018-02-27T04:00:52.349Z,4.70
2018-02-27T04:03:21.195Z,4.50
2018-02-27T04:05:49.689Z,4.40
2018-02-27T04:08:17.408Z,6.40
2018-02-27T04:10:45.163Z,5.70
2018-02-27T04:13:13.426Z,5.33
2018-02-27T04:15:41.206Z,5.87
2018-02-27T04:18:09.028Z,4.90
2018-02-27T04:20:37.466Z,5.13
2018-02-27T04:23:05.137Z,5.20
2018-02-27T04:25:34.388Z,7.50
2018-02-27T04:28:02.079Z,5.10
2018-02-27T04:30:29.891Z,5.33
2018-02-27T04:32:58.224Z,5.67
2018-02-27T04:35:27.363Z,5.10
2018-02-27T04:37:55.118Z,5.43
2018-02-27T04:40:23.678Z,5.50
2018-02-27T04:42:51.751Z,5.97
2018-02-27T04:45:19.815Z,4.60
2018-02-27T04:47:47.886Z,5.90
2018-02-27T04:50:15.543Z,5.00
2018-02-27T04:52:43.377Z,5.23
2018-02-27T04:55:11.026Z,4.90
2018-02-27T04:57:39.223Z,5.63
2018-02-27T05:00:07.125Z,5.50
2018-02-27T05:02:36.087Z,4.70
2018-02-27T05:05:04.120Z,5.57
2018-02-27T05:07:31.787Z,5.87
2018-02-27T05:09:59.849Z,5.00
2018-02-27T05:12:27.848Z,5.73
2018-02-27T05:14:55.528Z,5.47
2018-02-27T05:17:23.289Z,5.27
2018-02-27T05:19:51.633Z,5.67
2018-02-27T05:22:19.459Z,5.00
2018-02-27T05:24:47.142Z,5.40
2018-02-27T05:27:14.719Z,4.97
2018-02-27T05:29:42.384Z,5.33
2018-02-27T05:32:10.373Z,5.83
2018-02-27T05:34:38.117Z,5.13
2018-02-27T05:37:06.605Z,5.73
2018-02-27T05:39:35.320Z,5.90
2018-02-27T05:42:02.987Z,5.20
2018-02-27T05:44:30.656Z,5.50
2018-02-27T05:46:58.432Z,5.80
2018-02-27T05:49:26.027Z,5.90
2018-02-27T05:51:53.653Z,6.23
2018-02-27T05:54:21.389Z,5.63
2018-02-27T05:56:50.176Z,7.00
2018-02-27T05:59:17.869Z,6.17
2018-02-27T06:01:45.492Z,5.67
2018-02-27T06:04:13.363Z,6.33
2018-02-27T06:06:41.942Z,6.37
2018-02-27T06:09:09.709Z,6.13
2018-02-27T06:11:37.382Z,5.57
2018-02-27T06:14:05.847Z,6.07
2018-02-27T06:16:34.966Z,5.90
2018-02-27T06:19:03.025Z,5.23
2018-02-27T06:21:30.878Z,5.90
2018-02-27T06:24:00.182Z,6.27
2018-02-27T06:26:28.161Z,6.33
2018-02-27T06:28:56.095Z,6.47
2018-02-27T06:31:24.708Z,5.10
2018-02-27T06:33:54.635Z,5.50
2018-02-27T06:36:22.564Z,6.53
2018-02-27T06:38:50.392Z,6.10
2018-02-27T06:41:18.031Z,10.17
2018-02-27T06:43:45.666Z,6.37
2018-02-27T06:46:13.867Z,5.87
2018-02-27T06:48:42.533Z,5.90
2018-02-27T06:51:10.576Z,6.17
2018-02-27T06:53:38.710Z,6.40
2018-02-27T06:56:06.750Z,5.33
2018-02-27T06:58:35.402Z,5.50
2018-02-27T07:01:03.157Z,7.07
2018-02-27T07:03:31.916Z,5.83
2018-02-27T07:06:00.342Z,5.97
2018-02-27T07:08:28.130Z,5.47
2018-02-27T07:10:55.735Z,6.40
2018-02-27T07:13:23.923Z,6.37
2018-02-27T07:15:52.033Z,6.60
2018-02-27T07:18:19.968Z,5.97
2018-02-27T07:20:47.839Z,5.87
2018-02-27T07:23:16.449Z,6.87
2018-02-27T07:25:44.346Z,7.40
2018-02-27T07:28:12.459Z,5.80
2018-02-27T07:30:40.672Z,5.80
2018-02-27T07:33:08.973Z,6.23
2018-02-27T07:35:36.750Z,6.40
2018-02-27T07:38:04.573Z,6.70
2018-02-27T07:40:32.228Z,5.70
2018-02-27T07:42:59.975Z,6.53
2018-02-27T07:45:28.095Z,6.53
2018-02-27T07:47:55.974Z,6.93
2018-02-27T07:50:24.992Z,6.20
2018-02-27T07:52:52.870Z,6.70
2018-02-27T07:55:21.375Z,6.80
2018-02-27T07:57:49.080Z,5.73
2018-02-27T08:00:16.680Z,6.30
2018-02-27T08:02:44.411Z,5.83
2018-02-27T08:05:12.064Z,6.80
2018-02-27T08:07:39.635Z,5.63
2018-02-27T08:10:07.289Z,6.67
2018-02-27T08:12:34.879Z,6.33
2018-02-27T08:15:02.554Z,6.60
2018-02-27T08:17:30.460Z,6.37
2018-02-27T08:19:58.541Z,6.13
2018-02-27T08:22:26.336Z,6.03
2018-02-27T08:24:54.188Z,5.43
2018-02-27T08:27:22.592Z,5.87
2018-02-27T08:29:50.292Z,5.43
2018-02-27T08:32:18.156Z,6.50
2018-02-27T08:34:45.879Z,6.07
2018-02-27T08:37:13.520Z,5.77
2018-02-27T08:39:41.370Z,6.20
2018-02-27T08:42:09.216Z,5.63
2018-02-27T08:44:37.658Z,6.03
2018-02-27T08:47:05.374Z,6.13
2018-02-27T08:49:33.689Z,6.63
2018-02-27T08:52:01.394Z,6.80
2018-02-27T08:54:28.938Z,6.40
2018-02-27T08:56:56.561Z,6.00
2018-02-27T08:59:24.338Z,6.43
2018-02-27T09:01:52.153Z,5.73
2018-02-27T09:04:19.641Z,6.47
2018-02-27T09:06:48.255Z,6.43
2018-02-27T09:09:16.562Z,5.87
2018-02-27T09:11:43.996Z,6.37
2018-02-27T09:14:12.239Z,6.10
2018-02-27T09:16:39.729Z,6.73
2018-02-27T09:19:07.200Z,6.50
2018-02-27T09:21:34.807Z,5.40
2018-02-27T09:24:02.266Z,6.13
2018-02-27T09:26:29.826Z,6.03
2018-02-27T09:28:57.363Z,8.03
2018-02-27T09:31:25.841Z,8.20
2018-02-27T09:33:53.808Z,10.10
2018-02-27T09:36:21.307Z,9.00
2018-02-27T09:38:48.859Z,11.23
2018-02-27T09:41:16.351Z,10.97
2018-02-27T09:43:43.973Z,13.73
2018-02-27T09:46:11.491Z,14.20
2018-02-27T09:48:39.335Z,12.30
2018-02-27T09:51:06.905Z,11.33
2018-02-27T09:53:34.364Z,12.80
2018-02-27T09:56:01.888Z,12.97
2018-02-27T09:58:29.715Z,12.87
2018-02-27T10:00:57.191Z,11.83
2018-02-27T10:03:24.690Z,11.47
2018-02-27T10:05:52.157Z,11.00
2018-02-27T10:08:19.713Z,12.30
2018-02-27T10:10:47.138Z,9.80
2018-02-27T10:13:14.629Z,10.97
2018-02-27T10:15:43.343Z,11.20
2018-02-27T10:18:11.100Z,9.50
2018-02-27T10:20:40.170Z,10.00
2018-02-27T10:23:07.641Z,10.80
2018-02-27T10:25:35.268Z,10.40
2018-02-27T10:28:02.838Z,10.87
2018-02-27T10:30:31.131Z,10.20
2018-02-27T10:32:58.615Z,10.20
2018-02-27T10:35:26.377Z,11.17
2018-02-27T10:37:54.312Z,12.23
2018-02-27T10:40:21.964Z,12.63
2018-02-27T10:42:50.184Z,11.70
2018-02-27T10:45:17.677Z,13.13
2018-02-27T10:47:45.971Z,10.33
2018-02-27T10:50:13.779Z,12.50
2018-02-27T10:52:41.521Z,10.73
2018-02-27T10:55:14.337Z,12.20
2018-02-27T10:57:41.867Z,10.33
2018-02-27T11:00:09.350Z,11.33
2018-02-27T11:02:36.793Z,11.20
2018-02-27T11:05:04.282Z,8.73
2018-02-27T11:07:32.084Z,10.60
2018-02-27T11:09:59.584Z,10.87
2018-02-27T11:12:27.082Z,9.60
2018-02-27T11:14:54.508Z,10.57
2018-02-27T11:17:22.331Z,12.50
2018-02-27T11:19:49.928Z,10.47
2018-02-27T11:22:17.411Z,11.27
2018-02-27T11:24:44.930Z,15.27
2018-02-27T11:27:12.484Z,10.27
2018-02-27T11:29:40.164Z,10.27
2018-02-27T11:32:07.618Z,12.90
2018-02-27T11:34:35.699Z,12.80
2018-02-27T11:37:05.612Z,12.60
2018-02-27T11:39:33.192Z,14.00
2018-02-27T11:42:00.909Z,15.07
2018-02-27T11:44:28.480Z,15.00
2018-02-27T11:46:56.070Z,14.37
2018-02-27T11:49:23.546Z,14.87
2018-02-27T11:51:51.185Z,14.30
2018-02-27T11:54:19.549Z,12.80
2018-02-27T11:56:47.167Z,14.73
2018-02-27T11:59:15.074Z,14.00
2018-02-27T12:01:42.738Z,16.00
2018-02-27T12:04:10.259Z,15.03
2018-02-27T12:06:38.031Z,14.47
2018-02-27T12:09:06.262Z,15.93
2018-02-27T12:11:33.986Z,15.07
2018-02-27T12:14:01.769Z,16.73
2018-02-27T12:16:30.700Z,16.93
2018-02-27T12:18:59.463Z,16.03
2018-02-27T12:21:27.200Z,16.13
2018-02-27T12:23:55.074Z,16.80
2018-02-27T12:26:22.632Z,15.70
2018-02-27T12:28:50.134Z,16.13
2018-02-27T12:31:18.334Z,23.20
2018-02-27T12:33:45.811Z,27.00
2018-02-27T12:36:13.271Z,30.47
2018-02-27T12:38:40.823Z,26.90
2018-02-27T12:41:08.756Z,27.00
2018-02-27T12:43:36.957Z,25.03
2018-02-27T12:46:05.134Z,27.33
2018-02-27T12:48:33.553Z,33.13
2018-02-27T12:51:01.269Z,34.17
2018-02-27T12:53:29.293Z,24.33
2018-02-27T12:55:57.518Z,26.77
2018-02-27T12:58:25.135Z,31.00
2018-02-27T13:00:54.494Z,23.10
2018-02-27T13:03:22.151Z,37.90
2018-02-27T13:05:49.638Z,24.53
2018-02-27T13:08:17.602Z,35.03
2018-02-27T13:10:45.162Z,40.27
2018-02-27T13:13:13.023Z,37.23
2018-02-27T13:15:40.504Z,31.80
2018-02-27T13:18:08.144Z,34.40
2018-02-27T13:20:36.111Z,32.40
2018-02-27T13:23:03.645Z,37.97
2018-02-27T13:25:31.942Z,35.43
2018-02-27T13:27:59.608Z,28.77
2018-02-27T13:30:27.093Z,40.80
2018-02-27T13:32:54.593Z,37.67
2018-02-27T13:35:22.201Z,40.60
2018-02-27T13:37:49.954Z,36.23
2018-02-27T13:40:17.547Z,35.17
2018-02-27T13:42:44.996Z,42.50
2018-02-27T13:45:12.449Z,32.10
2018-02-27T13:47:40.005Z,28.87
2018-02-27T13:50:08.308Z,30.17
2018-02-27T13:52:35.725Z,36.40
2018-02-27T13:55:03.180Z,40.47
2018-02-27T13:57:30.961Z,29.60
2018-02-27T13:59:58.511Z,31.23
2018-02-27T14:02:26.036Z,30.57
2018-02-27T14:04:53.584Z,31.93
2018-02-27T14:07:21.115Z,22.07
2018-02-27T14:09:48.786Z,33.53
2018-02-27T14:12:16.704Z,29.70
2018-02-27T14:14:44.275Z,35.10
2018-02-27T14:17:11.809Z,35.47
2018-02-27T14:19:39.325Z,34.27
2018-02-27T14:22:07.154Z,37.83
2018-02-27T14:24:34.658Z,42.43
2018-02-27T14:27:02.885Z,33.47
2018-02-27T14:29:30.403Z,36.87
2018-02-27T14:31:58.414Z,29.30
2018-02-27T14:34:26.016Z,41.10
2018-02-27T14:36:54.341Z,34.83
2018-02-27T14:39:22.028Z,33.10
2018-02-27T14:41:49.957Z,39.10
2018-02-27T14:44:18.325Z,34.30
2018-02-27T14:46:46.550Z,39.77
2018-02-27T14:49:14.066Z,30.97
2018-02-27T14:51:41.750Z,36.80
2018-02-27T14:54:09.378Z,36.57
2018-02-27T14:56:37.159Z,41.40
2018-02-27T14:59:05.521Z,51.77
2018-02-27T15:01:32.973Z,36.73
2018-02-27T15:04:00.520Z,36.40
2018-02-27T15:06:28.092Z,46.90
2018-02-27T15:08:55.849Z,45.83
2018-02-27T15:11:24.338Z,36.03
2018-02-27T15:13:52.610Z,33.60
2018-02-27T15:16:20.085Z,42.83
2018-02-27T15:18:48.360Z,37.40
2018-02-27T15:21:15.935Z,32.27
2018-02-27T15:23:43.537Z,36.50
2018-02-27T15:26:11.184Z,44.47
2018-02-27T15:28:38.649Z,38.10
2018-02-27T15:31:06.154Z,39.63
2018-02-27T15:33:34.443Z,40.80
2018-02-27T15:36:01.973Z,42.43
2018-02-27T15:38:29.448Z,50.70
2018-02-27T15:40:58.071Z,41.23
2018-02-27T15:43:25.640Z,41.00
2018-02-27T15:45:53.104Z,45.90
2018-02-27T15:48:20.671Z,41.10
2018-02-27T15:50:48.230Z,45.90
2018-02-27T15:53:15.753Z,37.23
2018-02-27T15:55:43.628Z,39.77
2018-02-27T15:58:11.172Z,39.87
2018-02-27T16:00:38.669Z,35.80
2018-02-27T16:03:06.412Z,39.03
2018-02-27T16:05:34.047Z,41.30
2018-02-27T16:08:01.570Z,50.23
2018-02-27T16:10:29.989Z,44.80
2018-02-27T16:12:58.760Z,39.17
2018-02-27T16:15:27.058Z,38.43
2018-02-27T16:17:54.553Z,33.60
2018-02-27T16:20:22.071Z,41.90
2018-02-27T16:22:49.954Z,41.93
2018-02-27T16:25:17.566Z,39.80
2018-02-27T16:27:46.146Z,33.40
2018-02-27T16:30:14.342Z,37.77
2018-02-27T16:32:42.037Z,38.30
2018-02-27T16:35:09.651Z,31.30
2018-02-27T16:37:40.761Z,30.40
2018-02-27T16:40:08.386Z,38.93
2018-02-27T16:42:35.872Z,30.83
2018-02-27T16:45:03.500Z,34.40
2018-02-27T16:47:31.267Z,42.10
2018-02-27T16:49:59.867Z,33.57
2018-02-27T16:52:27.583Z,38.80
2018-02-27T16:54:55.503Z,35.10
2018-02-27T16:57:23.580Z,28.57
2018-02-27T16:59:51.106Z,34.80
2018-02-27T17:02:18.598Z,27.43
2018-02-27T17:04:46.458Z,28.37
2018-02-27T17:07:14.070Z,30.33
2018-02-27T17:09:41.884Z,26.07
2018-02-27T17:12:10.563Z,33.93
2018-02-27T17:14:39.263Z,29.33
2018-02-27T17:17:06.835Z,28.13
2018-02-27T17:19:34.747Z,31.40
2018-02-27T17:22:02.221Z,26.40
2018-02-27T17:24:30.004Z,29.60
2018-02-27T17:26:57.592Z,31.27
2018-02-27T17:29:25.464Z,29.80
2018-02-27T17:31:53.860Z,25.37
2018-02-27T17:34:21.686Z,30.90
2018-02-27T17:36:49.639Z,26.87
2018-02-27T17:39:17.244Z,23.57
2018-02-27T17:41:46.610Z,30.60
2018-02-27T17:44:14.470Z,32.20
2018-02-27T17:46:42.353Z,28.80
2018-02-27T17:49:09.920Z,26.63
2018-02-27T17:51:37.732Z,30.83
2018-02-27T17:54:05.176Z,28.30
2018-02-27T17:56:34.275Z,28.90
2018-02-27T17:59:02.898Z,26.47
2018-02-27T18:01:32.234Z,25.43
2018-02-27T18:04:01.742Z,23.00
2018-02-27T18:06:30.079Z,28.50
2018-02-27T18:08:59.457Z,30.80
2018-02-27T18:11:27.256Z,25.20
2018-02-27T18:13:56.793Z,25.13
2018-02-27T18:16:24.626Z,24.67
2018-02-27T18:18:52.345Z,20.23
2018-02-27T18:21:20.663Z,23.43
2018-02-27T18:23:48.125Z,21.10
2018-02-27T18:26:15.571Z,22.20
2018-02-27T18:28:43.062Z,24.87
2018-02-27T18:31:11.281Z,18.90
2018-02-27T18:33:41.371Z,21.80
2018-02-27T18:36:11.680Z,22.70
2018-02-27T18:38:40.144Z,29.07
2018-02-27T18:41:08.002Z,20.80
2018-02-27T18:43:35.508Z,21.23
2018-02-27T18:46:04.146Z,29.80
2018-02-27T18:48:32.524Z,22.10
2018-02-27T18:51:00.039Z,21.23
2018-02-27T18:53:28.434Z,18.17
2018-02-27T18:55:56.439Z,25.77
2018-02-27T18:58:23.999Z,22.50
2018-02-27T19:00:51.493Z,21.70
2018-02-27T19:03:19.318Z,19.47
2018-02-27T19:05:47.176Z,18.73
2018-02-27T19:08:14.671Z,18.20
2018-02-27T19:10:42.508Z,18.07
2018-02-27T19:13:10.064Z,19.47
2018-02-27T19:15:37.598Z,22.67
2018-02-27T19:18:05.121Z,18.53
2018-02-27T19:20:32.596Z,21.10
2018-02-27T19:23:01.109Z,20.50
2018-02-27T19:25:28.687Z,16.17
2018-02-27T19:27:56.552Z,17.63
2018-02-27T19:30:24.140Z,20.63
2018-02-27T19:32:52.801Z,16.37
2018-02-27T19:35:20.578Z,13.63
2018-02-27T19:37:48.192Z,15.33
2018-02-27T19:40:15.944Z,16.70
2018-02-27T19:42:43.656Z,15.77
2018-02-27T19:45:11.296Z,15.77
2018-02-27T19:47:38.868Z,13.17
2018-02-27T19:50:06.435Z,16.53
2018-02-27T19:52:34.297Z,14.80
2018-02-27T19:55:02.123Z,14.23
2018-02-27T19:57:29.824Z,14.17
2018-02-27T19:59:57.298Z,14.63
2018-02-27T20:02:24.889Z,15.40
2018-02-27T20:04:53.534Z,14.70
2018-02-27T20:07:21.403Z,15.27
2018-02-27T20:09:49.094Z,11.70
2018-02-27T20:12:16.606Z,15.53
2018-02-27T20:14:45.306Z,11.10
2018-02-27T20:17:12.936Z,11.70
2018-02-27T20:19:40.431Z,11.70
2018-02-27T20:22:08.019Z,11.47
2018-02-27T20:24:36.372Z,13.93
2018-02-27T20:27:04.041Z,12.40
2018-02-27T20:29:31.505Z,16.00
2018-02-27T20:32:00.056Z,10.63
2018-02-27T20:34:27.535Z,11.27
2018-02-27T20:36:55.076Z,11.60
2018-02-27T20:39:23.166Z,10.27
2018-02-27T20:41:50.737Z,10.73
2018-02-27T20:44:18.491Z,10.33
2018-02-27T20:46:46.515Z,10.83
2018-02-27T20:49:14.087Z,10.30
2018-02-27T20:51:41.760Z,7.17
2018-02-27T20:54:09.426Z,7.90
2018-02-27T20:56:37.094Z,10.60
2018-02-27T20:59:04.775Z,9.07
2018-02-27T21:01:32.418Z,12.03
2018-02-27T21:04:00.028Z,8.77
2018-02-27T21:06:31.237Z,7.63
2018-02-27T21:08:59.791Z,8.43
2018-02-27T21:11:28.490Z,10.97
2018-02-27T21:13:56.210Z,8.30
2018-02-27T21:16:23.738Z,12.83
2018-02-27T21:18:51.571Z,6.63
2018-02-27T21:21:19.403Z,12.70
2018-02-27T21:23:47.994Z,10.33
2018-02-27T21:26:15.667Z,10.37
2018-02-27T21:28:43.610Z,8.90
2018-02-27T21:31:11.123Z,11.37
2018-02-27T21:33:38.680Z,14.33
2018-02-27T21:36:06.190Z,7.87
2018-02-27T21:38:34.018Z,7.43
2018-02-27T21:41:01.489Z,5.17
2018-02-27T21:43:29.009Z,6.47
2018-02-27T21:45:56.538Z,8.43
2018-02-27T21:48:24.522Z,9.90
2018-02-27T21:50:52.023Z,7.00
2018-02-27T21:53:19.877Z,12.77
2018-02-27T21:55:47.745Z,10.07
2018-02-27T21:58:15.620Z,7.70
2018-02-27T22:00:43.561Z,7.80
2018-02-27T22:03:11.061Z,6.23
2018-02-27T22:05:38.573Z,12.83
2018-02-27T22:08:07.145Z,6.83
2018-02-27T22:10:34.643Z,8.53
2018-02-27T22:13:02.238Z,10.53
2018-02-27T22:15:30.167Z,6.83
2018-02-27T22:17:57.702Z,12.30
2018-02-27T22:20:26.207Z,6.90
2018-02-27T22:22:53.734Z,10.67
2018-02-27T22:25:21.299Z,9.30
2018-02-27T22:27:50.450Z,7.90
2018-02-27T22:30:18.686Z,9.93
2018-02-27T22:32:46.184Z,6.30
2018-02-27T22:35:13.741Z,12.87
2018-02-27T22:37:41.225Z,5.87
2018-02-27T22:40:09.678Z,7.80
2018-02-27T22:42:38.337Z,6.13
2018-02-27T22:45:06.106Z,9.67
2018-02-27T22:47:33.727Z,7.67
2018-02-27T22:50:02.244Z,7.60
2018-02-27T22:52:29.736Z,5.77
2018-02-27T22:54:57.265Z,8.57
2018-02-27T22:57:25.035Z,8.97
2018-02-27T22:59:52.624Z,7.20
2018-02-27T23:02:20.454Z,6.83
2018-02-27T23:04:48.115Z,7.73
2018-02-27T23:07:15.693Z,9.60
2018-02-27T23:09:43.151Z,6.37
2018-02-27T23:12:10.712Z,10.20
2018-02-27T23:14:38.153Z,7.30
2018-02-27T23:17:05.655Z,7.30
2018-02-27T23:19:33.185Z,7.90
2018-02-27T23:22:01.030Z,11.23
2018-02-27T23:24:28.768Z,6.20
2018-02-27T23:26:56.278Z,9.40
2018-02-27T23:29:25.204Z,11.87
2018-02-27T23:31:53.789Z,6.23
2018-02-27T23:34:21.977Z,9.83
2018-02-27T23:36:49.425Z,10.70
2018-02-27T23:39:16.901Z,9.67
2018-02-27T23:41:44.341Z,9.17
2018-02-27T23:44:12.113Z,9.20
2018-02-27T23:46:39.615Z,7.10
2018-02-27T23:49:08.313Z,4.53
2018-02-27T23:51:35.873Z,9.10
2018-02-27T23:54:03.436Z,9.10
2018-02-27T23:56:31.158Z,8.30
2018-02-27T23:58:58.728Z,11.77
